sensor_id;sensor_type;location;lat;lon;timestamp;pressure;altitude;pressure_sealevel;temperature;humidity
51287;BME280;37364;46.974;18.916;2022-12-08T00:01:28;150317.13;;;-0.15;100.00
51287;BME280;37364;46.974;18.916;2022-12-08T00:03:59;150321.00;;;-0.13;100.00
51287;BME280;37364;46.974;18.916;2022-12-08T00:06:31;150310.72;;;-0.17;100.00
51287;BME280;37364;46.974;18.916;2022-12-08T00:09:22;150304.28;;;-0.20;100.00
51287;BME280;37364;46.974;18.916;2022-12-08T00:11:56;150296.59;;;-0.23;100.00
51287;BME280;37364;46.974;18.916;2022-12-08T00:14:28;150281.19;;;-0.29;100.00
51287;BME280;37364;46.974;18.916;2022-12-08T00:16:59;150288.88;;;-0.26;100.00
51287;BME280;37364;46.974;18.916;2022-12-08T00:19:30;150273.47;;;-0.32;100.00
51287;BME280;37364;46.974;18.916;2022-12-08T00:22:00;150261.94;;;-0.37;100.00
51287;BME280;37364;46.974;18.916;2022-12-08T00:24:36;150245.22;;;-0.44;100.00
51287;BME280;37364;46.974;18.916;2022-12-08T00:27:08;150232.41;;;-0.49;100.00
51287;BME280;37364;46.974;18.916;2022-12-08T00:29:40;150214.41;;;-0.56;100.00
51287;BME280;37364;46.974;18.916;2022-12-08T00:32:12;150202.88;;;-0.61;100.00
51287;BME280;37364;46.974;18.916;2022-12-08T00:34:42;150193.88;;;-0.64;100.00
51287;BME280;37364;46.974;18.916;2022-12-08T00:37:12;150186.16;;;-0.67;100.00
51287;BME280;37364;46.974;18.916;2022-12-08T00:39:45;150174.63;;;-0.72;100.00
51287;BME280;37364;46.974;18.916;2022-12-08T00:42:16;150186.16;;;-0.67;100.00
51287;BME280;37364;46.974;18.916;2022-12-08T00:44:46;150173.38;;;-0.72;100.00
51287;BME280;37364;46.974;18.916;2022-12-08T00:47:16;150159.25;;;-0.78;100.00
51287;BME280;37364;46.974;18.916;2022-12-08T00:49:50;150147.66;;;-0.83;100.00
51287;BME280;37364;46.974;18.916;2022-12-08T00:52:21;150141.25;;;-0.85;100.00
51287;BME280;37364;46.974;18.916;2022-12-08T00:54:53;150150.25;;;-0.82;100.00
51287;BME280;37364;46.974;18.916;2022-12-08T00:57:24;150157.91;;;-0.78;100.00
51287;BME280;37364;46.974;18.916;2022-12-08T00:59:54;150148.97;;;-0.82;100.00
51287;BME280;37364;46.974;18.916;2022-12-08T01:02:24;150152.78;;;-0.81;100.00
51287;BME280;37364;46.974;18.916;2022-12-08T01:04:54;150163.09;;;-0.76;100.00
51287;BME280;37364;46.974;18.916;2022-12-08T01:07:25;150181.03;;;-0.69;100.00
51287;BME280;37364;46.974;18.916;2022-12-08T01:09:58;150174.63;;;-0.72;100.00
51287;BME280;37364;46.974;18.916;2022-12-08T01:12:29;150174.63;;;-0.72;100.00
51287;BME280;37364;46.974;18.916;2022-12-08T01:14:59;150179.75;;;-0.70;100.00
51287;BME280;37364;46.974;18.916;2022-12-08T01:17:30;150187.44;;;-0.67;100.00
51287;BME280;37364;46.974;18.916;2022-12-08T01:20:00;150192.63;;;-0.65;100.00
51287;BME280;37364;46.974;18.916;2022-12-08T01:22:32;150192.63;;;-0.65;100.00
51287;BME280;37364;46.974;18.916;2022-12-08T01:25:07;150200.28;;;-0.62;100.00
51287;BME280;37364;46.974;18.916;2022-12-08T01:27:38;150206.69;;;-0.59;100.00
51287;BME280;37364;46.974;18.916;2022-12-08T01:30:09;150213.16;;;-0.56;100.00
51287;BME280;37364;46.974;18.916;2022-12-08T01:32:40;150233.69;;;-0.48;100.00
51287;BME280;37364;46.974;18.916;2022-12-08T01:35:11;150229.81;;;-0.50;100.00
51287;BME280;37364;46.974;18.916;2022-12-08T01:37:41;150258.06;;;-0.38;100.00
51287;BME280;37364;46.974;18.916;2022-12-08T01:40:14;150268.34;;;-0.34;100.00
51287;BME280;37364;46.974;18.916;2022-12-08T01:42:44;150291.47;;;-0.25;100.00
51287;BME280;37364;46.974;18.916;2022-12-08T01:45:20;150288.88;;;-0.26;100.00
51287;BME280;37364;46.974;18.916;2022-12-08T01:47:54;150279.88;;;-0.30;100.00
51287;BME280;37364;46.974;18.916;2022-12-08T01:50:26;150279.88;;;-0.30;100.00
51287;BME280;37364;46.974;18.916;2022-12-08T01:52:59;150277.34;;;-0.31;100.00
51287;BME280;37364;46.974;18.916;2022-12-08T01:55:37;150287.59;;;-0.27;100.00
51287;BME280;37364;46.974;18.916;2022-12-08T01:58:14;150290.16;;;-0.26;100.00
51287;BME280;37364;46.974;18.916;2022-12-08T02:00:46;150304.28;;;-0.20;100.00
51287;BME280;37364;46.974;18.916;2022-12-08T02:03:23;150309.41;;;-0.18;100.00
51287;BME280;37364;46.974;18.916;2022-12-08T02:05:54;150327.41;;;-0.11;100.00
51287;BME280;37364;46.974;18.916;2022-12-08T02:08:27;150322.28;;;-0.13;100.00
51287;BME280;37364;46.974;18.916;2022-12-08T02:11:00;150330.00;;;-0.10;100.00
51287;BME280;37364;46.974;18.916;2022-12-08T02:13:30;150326.13;;;-0.11;100.00
51287;BME280;37364;46.974;18.916;2022-12-08T02:16:06;150333.81;;;-0.08;100.00
51287;BME280;37364;46.974;18.916;2022-12-08T02:18:49;150344.09;;;-0.04;100.00
51287;BME280;37364;46.974;18.916;2022-12-08T02:21:47;150335.13;;;-0.08;100.00
51287;BME280;37364;46.974;18.916;2022-12-08T02:24:28;150337.69;;;-0.07;100.00
51287;BME280;37364;46.974;18.916;2022-12-08T02:27:22;150345.41;;;-0.04;100.00
51287;BME280;37364;46.974;18.916;2022-12-08T02:30:21;150346.69;;;-0.03;100.00
51287;BME280;37364;46.974;18.916;2022-12-08T02:35:57;150351.81;;;-0.01;100.00
51287;BME280;37364;46.974;18.916;2022-12-08T02:38:36;150353.09;;;-0.01;100.00
51287;BME280;37364;46.974;18.916;2022-12-08T02:41:17;150358.22;;;0.02;100.00
51287;BME280;37364;46.974;18.916;2022-12-08T02:43:54;150355.69;;;0.01;100.00
51287;BME280;37364;46.974;18.916;2022-12-08T02:46:29;150363.34;;;0.04;100.00
51287;BME280;37364;46.974;18.916;2022-12-08T02:49:02;150372.34;;;0.07;100.00
51287;BME280;37364;46.974;18.916;2022-12-08T02:51:36;150373.63;;;0.08;100.00
51287;BME280;37364;46.974;18.916;2022-12-08T02:54:08;150374.94;;;0.08;100.00
51287;BME280;37364;46.974;18.916;2022-12-08T02:56:59;150378.75;;;0.10;100.00
51287;BME280;37364;46.974;18.916;2022-12-08T02:59:47;150380.09;;;0.10;100.00
51287;BME280;37364;46.974;18.916;2022-12-08T03:02:42;150387.75;;;0.13;100.00
51287;BME280;37364;46.974;18.916;2022-12-08T03:05:25;150405.75;;;0.21;100.00
51287;BME280;37364;46.974;18.916;2022-12-08T03:08:01;150412.16;;;0.23;100.00
51287;BME280;37364;46.974;18.916;2022-12-08T03:10:36;150414.75;;;0.24;100.00
51287;BME280;37364;46.974;18.916;2022-12-08T03:13:13;150418.63;;;0.26;100.00
51287;BME280;37364;46.974;18.916;2022-12-08T03:15:48;150423.75;;;0.28;100.00
51287;BME280;37364;46.974;18.916;2022-12-08T03:18:23;150431.44;;;0.31;100.00
51287;BME280;37364;46.974;18.916;2022-12-08T03:20:55;150453.31;;;0.39;100.00
51287;BME280;37364;46.974;18.916;2022-12-08T03:23:30;150471.25;;;0.47;100.00
51287;BME280;37364;46.974;18.916;2022-12-08T03:26:06;150461.00;;;0.43;100.00
51287;BME280;37364;46.974;18.916;2022-12-08T03:28:38;150468.72;;;0.46;100.00
51287;BME280;37364;46.974;18.916;2022-12-08T03:31:11;150472.59;;;0.47;100.00
51287;BME280;37364;46.974;18.916;2022-12-08T03:33:44;150469.97;;;0.46;100.00
51287;BME280;37364;46.974;18.916;2022-12-08T03:36:17;150472.59;;;0.47;100.00
51287;BME280;37364;46.974;18.916;2022-12-08T03:38:52;150469.97;;;0.46;100.00
51287;BME280;37364;46.974;18.916;2022-12-08T03:41:23;150469.97;;;0.46;100.00
51287;BME280;37364;46.974;18.916;2022-12-08T03:43:54;150471.25;;;0.47;100.00
51287;BME280;37364;46.974;18.916;2022-12-08T03:46:27;150476.41;;;0.49;100.00
51287;BME280;37364;46.974;18.916;2022-12-08T03:48:58;150476.41;;;0.49;100.00
51287;BME280;37364;46.974;18.916;2022-12-08T03:51:28;150476.41;;;0.49;100.00
51287;BME280;37364;46.974;18.916;2022-12-08T03:54:02;150473.84;;;0.48;100.00
51287;BME280;37364;46.974;18.916;2022-12-08T03:56:34;150480.25;;;0.50;100.00
51287;BME280;37364;46.974;18.916;2022-12-08T03:59:06;150489.25;;;0.54;100.00
51287;BME280;37364;46.974;18.916;2022-12-08T04:01:37;150489.25;;;0.54;100.00
51287;BME280;37364;46.974;18.916;2022-12-08T04:04:07;150485.41;;;0.52;100.00
51287;BME280;37364;46.974;18.916;2022-12-08T04:06:37;150488.00;;;0.53;100.00
51287;BME280;37364;46.974;18.916;2022-12-08T04:09:12;150490.53;;;0.54;100.00
51287;BME280;37364;46.974;18.916;2022-12-08T04:11:42;150488.00;;;0.53;100.00
51287;BME280;37364;46.974;18.916;2022-12-08T04:14:13;150484.13;;;0.52;100.00
51287;BME280;37364;46.974;18.916;2022-12-08T04:16:43;150484.13;;;0.52;100.00
51287;BME280;37364;46.974;18.916;2022-12-08T04:19:14;150477.72;;;0.49;100.00
51287;BME280;37364;46.974;18.916;2022-12-08T04:21:45;150473.84;;;0.48;100.00
51287;BME280;37364;46.974;18.916;2022-12-08T04:24:19;150471.25;;;0.47;100.00
51287;BME280;37364;46.974;18.916;2022-12-08T04:26:50;150472.59;;;0.47;100.00
51287;BME280;37364;46.974;18.916;2022-12-08T04:29:20;150471.25;;;0.47;100.00
51287;BME280;37364;46.974;18.916;2022-12-08T04:31:50;150466.13;;;0.45;100.00
51287;BME280;37364;46.974;18.916;2022-12-08T04:34:21;150469.97;;;0.46;100.00
51287;BME280;37364;46.974;18.916;2022-12-08T04:36:51;150476.41;;;0.49;100.00
51287;BME280;37364;46.974;18.916;2022-12-08T04:39:24;150486.66;;;0.53;100.00
51287;BME280;37364;46.974;18.916;2022-12-08T04:41:54;150486.66;;;0.53;100.00
51287;BME280;37364;46.974;18.916;2022-12-08T04:44:24;150485.41;;;0.52;100.00
51287;BME280;37364;46.974;18.916;2022-12-08T04:46:55;150488.00;;;0.53;100.00
51287;BME280;37364;46.974;18.916;2022-12-08T04:49:25;150486.66;;;0.53;100.00
51287;BME280;37364;46.974;18.916;2022-12-08T04:51:55;150489.25;;;0.54;100.00
51287;BME280;37364;46.974;18.916;2022-12-08T04:54:28;150486.66;;;0.53;100.00
51287;BME280;37364;46.974;18.916;2022-12-08T04:56:58;150482.84;;;0.51;100.00
51287;BME280;37364;46.974;18.916;2022-12-08T04:59:29;150489.25;;;0.54;100.00
51287;BME280;37364;46.974;18.916;2022-12-08T05:01:59;150488.00;;;0.53;100.00
51287;BME280;37364;46.974;18.916;2022-12-08T05:04:31;150486.66;;;0.53;100.00
51287;BME280;37364;46.974;18.916;2022-12-08T05:07:01;150485.41;;;0.52;100.00
51287;BME280;37364;46.974;18.916;2022-12-08T05:09:34;150473.84;;;0.48;100.00
51287;BME280;37364;46.974;18.916;2022-12-08T05:12:05;150479.00;;;0.50;100.00
51287;BME280;37364;46.974;18.916;2022-12-08T05:14:36;150476.41;;;0.49;100.00
51287;BME280;37364;46.974;18.916;2022-12-08T05:17:06;150468.72;;;0.46;100.00
51287;BME280;37364;46.974;18.916;2022-12-08T05:19:36;150472.59;;;0.47;100.00
51287;BME280;37364;46.974;18.916;2022-12-08T05:22:07;150467.44;;;0.45;100.00
51287;BME280;37364;46.974;18.916;2022-12-08T05:24:42;150469.97;;;0.46;100.00
51287;BME280;37364;46.974;18.916;2022-12-08T05:27:14;150469.97;;;0.46;100.00
51287;BME280;37364;46.974;18.916;2022-12-08T05:29:45;150475.13;;;0.48;100.00
51287;BME280;37364;46.974;18.916;2022-12-08T05:32:16;150475.13;;;0.48;100.00
51287;BME280;37364;46.974;18.916;2022-12-08T05:34:47;150472.59;;;0.47;100.00
51287;BME280;37364;46.974;18.916;2022-12-08T05:37:17;150473.84;;;0.48;100.00
51287;BME280;37364;46.974;18.916;2022-12-08T05:39:51;150481.53;;;0.51;100.00
51287;BME280;37364;46.974;18.916;2022-12-08T05:42:21;150479.00;;;0.50;100.00
51287;BME280;37364;46.974;18.916;2022-12-08T05:44:57;150479.00;;;0.50;100.00
51287;BME280;37364;46.974;18.916;2022-12-08T05:47:33;150477.72;;;0.49;100.00
51287;BME280;37364;46.974;18.916;2022-12-08T05:50:05;150480.25;;;0.50;100.00
51287;BME280;37364;46.974;18.916;2022-12-08T05:52:37;150480.25;;;0.50;100.00
51287;BME280;37364;46.974;18.916;2022-12-08T05:55:10;150476.41;;;0.49;100.00
51287;BME280;37364;46.974;18.916;2022-12-08T05:57:41;150477.72;;;0.49;100.00
51287;BME280;37364;46.974;18.916;2022-12-08T06:00:13;150469.97;;;0.46;100.00
51287;BME280;37364;46.974;18.916;2022-12-08T06:02:43;150468.72;;;0.46;100.00
51287;BME280;37364;46.974;18.916;2022-12-08T06:05:14;150468.72;;;0.46;100.00
51287;BME280;37364;46.974;18.916;2022-12-08T06:07:45;150471.25;;;0.47;100.00
51287;BME280;37364;46.974;18.916;2022-12-08T06:10:18;150475.13;;;0.48;100.00
51287;BME280;37364;46.974;18.916;2022-12-08T06:12:48;150473.84;;;0.48;100.00
51287;BME280;37364;46.974;18.916;2022-12-08T06:15:19;150479.00;;;0.50;100.00
51287;BME280;37364;46.974;18.916;2022-12-08T06:17:50;150491.84;;;0.55;100.00
51287;BME280;37364;46.974;18.916;2022-12-08T06:20:20;150502.13;;;0.59;100.00
51287;BME280;37364;46.974;18.916;2022-12-08T06:22:51;150512.41;;;0.63;100.00
51287;BME280;37364;46.974;18.916;2022-12-08T06:25:24;150527.81;;;0.69;100.00
51287;BME280;37364;46.974;18.916;2022-12-08T06:27:55;150543.22;;;0.75;100.00
51287;BME280;37364;46.974;18.916;2022-12-08T06:30:26;150563.78;;;0.84;100.00
51287;BME280;37364;46.974;18.916;2022-12-08T06:33:00;150565.06;;;0.84;100.00
51287;BME280;37364;46.974;18.916;2022-12-08T06:35:31;150570.19;;;0.86;100.00
51287;BME280;37364;46.974;18.916;2022-12-08T06:38:01;150586.94;;;0.93;100.00
51287;BME280;37364;46.974;18.916;2022-12-08T06:40:37;150597.22;;;0.97;100.00
51287;BME280;37364;46.974;18.916;2022-12-08T06:43:08;150610.09;;;1.02;100.00
51287;BME280;37364;46.974;18.916;2022-12-08T06:45:40;150620.38;;;1.06;100.00
51287;BME280;37364;46.974;18.916;2022-12-08T06:48:11;150649.94;;;1.18;100.00
51287;BME280;37364;46.974;18.916;2022-12-08T06:50:42;150646.06;;;1.16;100.00
51287;BME280;37364;46.974;18.916;2022-12-08T06:53:13;150666.63;;;1.25;100.00
51287;BME280;37364;46.974;18.916;2022-12-08T06:55:51;150666.63;;;1.25;100.00
51287;BME280;37364;46.974;18.916;2022-12-08T06:58:25;150680.78;;;1.30;100.00
51287;BME280;37364;46.974;18.916;2022-12-08T07:00:56;150683.38;;;1.31;100.00
51287;BME280;37364;46.974;18.916;2022-12-08T07:03:27;150684.63;;;1.32;100.00
51287;BME280;37364;46.974;18.916;2022-12-08T07:05:58;150692.31;;;1.35;100.00
51287;BME280;37364;46.974;18.916;2022-12-08T07:08:30;150698.78;;;1.37;100.00
51287;BME280;37364;46.974;18.916;2022-12-08T07:11:08;150710.34;;;1.42;100.00
51287;BME280;37364;46.974;18.916;2022-12-08T07:13:47;150721.91;;;1.47;100.00
51287;BME280;37364;46.974;18.916;2022-12-08T07:16:17;150730.91;;;1.50;100.00
51287;BME280;37364;46.974;18.916;2022-12-08T07:18:48;150747.66;;;1.57;100.00
51287;BME280;37364;46.974;18.916;2022-12-08T07:21:19;150755.34;;;1.60;100.00
51287;BME280;37364;46.974;18.916;2022-12-08T07:23:49;150769.50;;;1.66;100.00
51287;BME280;37364;46.974;18.916;2022-12-08T07:26:26;150781.06;;;1.70;100.00
51287;BME280;37364;46.974;18.916;2022-12-08T07:28:59;150788.78;;;1.73;100.00
51287;BME280;37364;46.974;18.916;2022-12-08T07:31:29;150793.94;;;1.75;100.00
51287;BME280;37364;46.974;18.916;2022-12-08T07:34:00;150810.63;;;1.82;100.00
51287;BME280;37364;46.974;18.916;2022-12-08T07:36:31;150836.41;;;1.92;100.00
51287;BME280;37364;46.974;18.916;2022-12-08T07:39:02;150837.66;;;1.93;100.00
51287;BME280;37364;46.974;18.916;2022-12-08T07:41:35;150836.41;;;1.92;100.00
51287;BME280;37364;46.974;18.916;2022-12-08T07:44:06;150864.66;;;2.04;100.00
51287;BME280;37364;46.974;18.916;2022-12-08T07:46:36;150871.13;;;2.06;100.00
51287;BME280;37364;46.974;18.916;2022-12-08T07:49:07;150873.66;;;2.07;100.00
51287;BME280;37364;46.974;18.916;2022-12-08T07:51:37;150900.72;;;2.18;100.00
51287;BME280;37364;46.974;18.916;2022-12-08T07:54:10;150913.53;;;2.23;100.00
51287;BME280;37364;46.974;18.916;2022-12-08T07:56:44;150931.56;;;2.30;100.00
51287;BME280;37364;46.974;18.916;2022-12-08T07:59:15;150949.59;;;2.37;100.00
51287;BME280;37364;46.974;18.916;2022-12-08T08:01:45;150970.19;;;2.46;100.00
51287;BME280;37364;46.974;18.916;2022-12-08T08:04:37;150993.38;;;2.55;100.00
51287;BME280;37364;46.974;18.916;2022-12-08T08:07:07;150997.19;;;2.56;100.00
51287;BME280;37364;46.974;18.916;2022-12-08T08:09:38;151015.22;;;2.64;100.00
51287;BME280;37364;46.974;18.916;2022-12-08T08:12:11;151019.09;;;2.65;100.00
51287;BME280;37364;46.974;18.916;2022-12-08T08:14:58;151035.81;;;2.72;100.00
51287;BME280;37364;46.974;18.916;2022-12-08T08:17:28;151051.25;;;2.78;100.00
51287;BME280;37364;46.974;18.916;2022-12-08T08:19:59;151065.41;;;2.84;100.00
51287;BME280;37364;46.974;18.916;2022-12-08T08:22:31;151061.53;;;2.82;100.00
51287;BME280;37364;46.974;18.916;2022-12-08T08:25:01;151065.41;;;2.84;100.00
51287;BME280;37364;46.974;18.916;2022-12-08T08:27:34;151052.56;;;2.79;100.00
51287;BME280;37364;46.974;18.916;2022-12-08T08:30:06;151049.97;;;2.77;100.00
51287;BME280;37364;46.974;18.916;2022-12-08T08:32:46;151061.53;;;2.82;100.00
51287;BME280;37364;46.974;18.916;2022-12-08T08:35:17;151065.41;;;2.84;100.00
51287;BME280;37364;46.974;18.916;2022-12-08T08:37:47;151071.88;;;2.86;100.00
51287;BME280;37364;46.974;18.916;2022-12-08T08:40:17;151062.88;;;2.83;100.00
51287;BME280;37364;46.974;18.916;2022-12-08T08:42:50;151057.72;;;2.81;100.00
51287;BME280;37364;46.974;18.916;2022-12-08T08:45:20;151078.31;;;2.89;100.00
51287;BME280;37364;46.974;18.916;2022-12-08T08:47:52;151068.00;;;2.85;100.00
51287;BME280;37364;46.974;18.916;2022-12-08T08:50:22;151078.31;;;2.89;100.00
51287;BME280;37364;46.974;18.916;2022-12-08T08:53:01;151069.28;;;2.85;100.00
51287;BME280;37364;46.974;18.916;2022-12-08T08:55:32;151073.16;;;2.87;100.00
51287;BME280;37364;46.974;18.916;2022-12-08T08:58:05;151065.41;;;2.84;100.00
51287;BME280;37364;46.974;18.916;2022-12-08T09:00:40;151091.16;;;2.94;100.00
51287;BME280;37364;46.974;18.916;2022-12-08T09:03:12;151134.91;;;3.11;100.00
51287;BME280;37364;46.974;18.916;2022-12-08T09:05:42;151150.41;;;3.17;100.00
51287;BME280;37364;46.974;18.916;2022-12-08T09:08:12;151147.81;;;3.16;100.00
51287;BME280;37364;46.974;18.916;2022-12-08T09:10:43;151174.84;;;3.27;100.00
51287;BME280;37364;46.974;18.916;2022-12-08T09:13:16;151190.31;;;3.33;100.00
51287;BME280;37364;46.974;18.916;2022-12-08T09:15:48;151201.91;;;3.38;100.00
51287;BME280;37364;46.974;18.916;2022-12-08T09:18:21;151178.72;;;3.29;100.00
51287;BME280;37364;46.974;18.916;2022-12-08T09:20:51;151189.00;;;3.33;100.00
51287;BME280;37364;46.974;18.916;2022-12-08T09:23:22;151192.88;;;3.34;100.00
51287;BME280;37364;46.974;18.916;2022-12-08T09:26:02;151225.09;;;3.47;100.00
51287;BME280;37364;46.974;18.916;2022-12-08T09:28:35;151235.38;;;3.51;100.00
51287;BME280;37364;46.974;18.916;2022-12-08T09:31:12;151236.66;;;3.52;100.00
51287;BME280;37364;46.974;18.916;2022-12-08T09:33:43;151232.78;;;3.50;100.00
51287;BME280;37364;46.974;18.916;2022-12-08T09:36:14;151221.22;;;3.46;100.00
51287;BME280;37364;46.974;18.916;2022-12-08T09:38:45;151208.31;;;3.41;100.00
51287;BME280;37364;46.974;18.916;2022-12-08T09:41:24;151208.31;;;3.41;100.00
51287;BME280;37364;46.974;18.916;2022-12-08T09:47:17;151221.22;;;3.46;100.00
51287;BME280;37364;46.974;18.916;2022-12-08T09:49:55;151216.06;;;3.44;100.00
51287;BME280;37364;46.974;18.916;2022-12-08T09:52:34;151189.00;;;3.33;100.00
51287;BME280;37364;46.974;18.916;2022-12-08T09:55:16;151201.91;;;3.38;100.00
51287;BME280;37364;46.974;18.916;2022-12-08T09:57:55;151199.31;;;3.37;100.00
51287;BME280;37364;46.974;18.916;2022-12-08T10:00:31;151209.66;;;3.41;100.00
51287;BME280;37364;46.974;18.916;2022-12-08T10:03:02;151230.25;;;3.49;100.00
51287;BME280;37364;46.974;18.916;2022-12-08T10:05:36;151254.72;;;3.59;100.00
51287;BME280;37364;46.974;18.916;2022-12-08T10:08:16;151285.63;;;3.71;100.00
51287;BME280;37364;46.974;18.916;2022-12-08T10:10:54;151277.88;;;3.68;100.00
51287;BME280;37364;46.974;18.916;2022-12-08T10:13:32;151286.88;;;3.72;100.00
51287;BME280;37364;46.974;18.916;2022-12-08T10:16:16;151317.84;;;3.84;100.00
51287;BME280;37364;46.974;18.916;2022-12-08T10:19:00;151279.19;;;3.69;100.00
51287;BME280;37364;46.974;18.916;2022-12-08T10:21:31;151275.31;;;3.67;100.00
51287;BME280;37364;46.974;18.916;2022-12-08T10:24:08;151289.50;;;3.73;100.00
51287;BME280;37364;46.974;18.916;2022-12-08T10:26:40;151310.09;;;3.81;100.00
51287;BME280;37364;46.974;18.916;2022-12-08T10:29:12;151351.31;;;3.97;100.00
51287;BME280;37364;46.974;18.916;2022-12-08T10:31:45;151371.94;;;4.06;100.00
51287;BME280;37364;46.974;18.916;2022-12-08T10:34:18;151352.63;;;3.98;100.00
51287;BME280;37364;46.974;18.916;2022-12-08T10:36:51;151342.31;;;3.94;100.00
51287;BME280;37364;46.974;18.916;2022-12-08T10:39:30;151387.41;;;4.12;100.00
51287;BME280;37364;46.974;18.916;2022-12-08T10:42:06;151389.97;;;4.13;100.00
51287;BME280;37364;46.974;18.916;2022-12-08T10:44:52;151415.72;;;4.23;100.00
51287;BME280;37364;46.974;18.916;2022-12-08T10:47:27;151462.16;;;4.42;100.00
51287;BME280;37364;46.974;18.916;2022-12-08T10:50:09;151459.53;;;4.41;100.00
51287;BME280;37364;46.974;18.916;2022-12-08T10:52:41;151508.53;;;4.60;100.00
51287;BME280;37364;46.974;18.916;2022-12-08T10:55:17;151508.53;;;4.60;100.00
51287;BME280;37364;46.974;18.916;2022-12-08T10:57:48;151511.13;;;4.61;100.00
51287;BME280;37364;46.974;18.916;2022-12-08T11:00:22;151530.47;;;4.69;100.00
51287;BME280;37364;46.974;18.916;2022-12-08T11:02:58;151552.34;;;4.78;100.00
51287;BME280;37364;46.974;18.916;2022-12-08T11:05:32;151518.84;;;4.64;100.00
51287;BME280;37364;46.974;18.916;2022-12-08T11:08:04;151525.31;;;4.67;100.00
51287;BME280;37364;46.974;18.916;2022-12-08T11:10:36;151526.59;;;4.67;100.00
51287;BME280;37364;46.974;18.916;2022-12-08T11:13:20;151511.13;;;4.61;100.00
51287;BME280;37364;46.974;18.916;2022-12-08T11:15:53;151518.84;;;4.64;100.00
51287;BME280;37364;46.974;18.916;2022-12-08T11:18:30;151534.28;;;4.70;100.00
51287;BME280;37364;46.974;18.916;2022-12-08T11:21:10;151503.38;;;4.58;100.00
51287;BME280;37364;46.974;18.916;2022-12-08T11:23:45;151598.81;;;4.96;100.00
51287;BME280;37364;46.974;18.916;2022-12-08T11:26:21;151529.13;;;4.68;100.00
51287;BME280;37364;46.974;18.916;2022-12-08T11:28:56;151517.56;;;4.64;100.00
51287;BME280;37364;46.974;18.916;2022-12-08T11:31:29;151466.03;;;4.43;100.00
51287;BME280;37364;46.974;18.916;2022-12-08T11:34:04;151489.19;;;4.52;100.00
51287;BME280;37364;46.974;18.916;2022-12-08T11:36:37;151526.59;;;4.67;100.00
51287;BME280;37364;46.974;18.916;2022-12-08T11:39:09;151525.31;;;4.67;100.00
51287;BME280;37364;46.974;18.916;2022-12-08T11:41:44;151591.03;;;4.93;100.00
51287;BME280;37364;46.974;18.916;2022-12-08T11:44:24;151660.66;;;5.21;100.00
51287;BME280;37364;46.974;18.916;2022-12-08T11:46:58;151668.44;;;5.24;100.00
51287;BME280;37364;46.974;18.916;2022-12-08T11:49:35;151645.19;;;5.14;100.00
51287;BME280;37364;46.974;18.916;2022-12-08T11:52:17;151652.97;;;5.18;100.00
51287;BME280;37364;46.974;18.916;2022-12-08T11:54:54;151627.13;;;5.07;100.00
51287;BME280;37364;46.974;18.916;2022-12-08T11:57:28;151633.63;;;5.10;100.00
51287;BME280;37364;46.974;18.916;2022-12-08T12:00:02;151624.56;;;5.06;100.00
51287;BME280;37364;46.974;18.916;2022-12-08T12:02:41;151632.28;;;5.09;100.00
51287;BME280;37364;46.974;18.916;2022-12-08T12:05:28;151612.94;;;5.02;100.00
51287;BME280;37364;46.974;18.916;2022-12-08T12:08:32;151628.47;;;5.08;100.00
51287;BME280;37364;46.974;18.916;2022-12-08T12:11:13;151624.56;;;5.06;100.00
51287;BME280;37364;46.974;18.916;2022-12-08T12:14:18;151628.47;;;5.08;100.00
51287;BME280;37364;46.974;18.916;2022-12-08T12:17:03;151646.47;;;5.15;100.00
51287;BME280;37364;46.974;18.916;2022-12-08T12:19:36;151619.44;;;5.04;100.00
51287;BME280;37364;46.974;18.916;2022-12-08T12:22:14;151621.97;;;5.05;100.00
51287;BME280;37364;46.974;18.916;2022-12-08T12:24:47;151650.34;;;5.17;100.00
51287;BME280;37364;46.974;18.916;2022-12-08T12:27:22;151650.34;;;5.17;100.00
51287;BME280;37364;46.974;18.916;2022-12-08T12:29:57;151647.81;;;5.15;100.00
51287;BME280;37364;46.974;18.916;2022-12-08T12:32:42;151655.50;;;5.19;100.00
51287;BME280;37364;46.974;18.916;2022-12-08T12:35:18;151620.69;;;5.05;100.00
51287;BME280;37364;46.974;18.916;2022-12-08T12:38:00;151650.34;;;5.17;100.00
51287;BME280;37364;46.974;18.916;2022-12-08T12:40:37;151621.97;;;5.05;100.00
51287;BME280;37364;46.974;18.916;2022-12-08T12:43:27;151629.72;;;5.08;100.00
51287;BME280;37364;46.974;18.916;2022-12-08T12:51:58;151585.88;;;4.91;100.00
51287;BME280;37364;46.974;18.916;2022-12-08T12:54:31;151614.25;;;5.02;100.00
51287;BME280;37364;46.974;18.916;2022-12-08T12:57:14;151585.88;;;4.91;100.00
51287;BME280;37364;46.974;18.916;2022-12-08T13:00:06;151580.72;;;4.89;100.00
51287;BME280;37364;46.974;18.916;2022-12-08T13:02:38;151588.44;;;4.92;100.00
51287;BME280;37364;46.974;18.916;2022-12-08T13:05:18;151580.72;;;4.89;100.00
51287;BME280;37364;46.974;18.916;2022-12-08T13:07:53;151588.44;;;4.92;100.00
51287;BME280;37364;46.974;18.916;2022-12-08T13:10:28;151562.66;;;4.82;100.00
51287;BME280;37364;46.974;18.916;2022-12-08T13:13:05;151549.81;;;4.77;100.00
51287;BME280;37364;46.974;18.916;2022-12-08T13:15:38;151560.13;;;4.81;100.00
51287;BME280;37364;46.974;18.916;2022-12-08T13:18:18;151542.06;;;4.73;100.00
51287;BME280;37364;46.974;18.916;2022-12-08T13:20:51;151527.88;;;4.68;100.00
51287;BME280;37364;46.974;18.916;2022-12-08T13:23:26;151539.50;;;4.72;100.00
51287;BME280;37364;46.974;18.916;2022-12-08T13:26:21;151531.75;;;4.69;100.00